sensor_id;sensor_type;location;lat;lon;timestamp;P1;durP1;ratioP1;P2;durP2;ratioP2
21416;SDS011;10869;52.238;10.716;2023-09-07T03:02:44;7.47;;;5.07;;
21416;SDS011;10869;52.238;10.716;2023-09-07T03:05:10;7.73;;;4.80;;
21416;SDS011;10869;52.238;10.716;2023-09-07T03:07:36;8.30;;;5.03;;
21416;SDS011;10869;52.238;10.716;2023-09-07T03:10:04;7.40;;;4.43;;
21416;SDS011;10869;52.238;10.716;2023-09-07T03:12:30;9.40;;;4.93;;
21416;SDS011;10869;52.238;10.716;2023-09-07T03:14:56;13.47;;;5.13;;
21416;SDS011;10869;52.238;10.716;2023-09-07T03:17:22;9.07;;;4.90;;
21416;SDS011;10869;52.238;10.716;2023-09-07T03:19:47;7.93;;;4.83;;
21416;SDS011;10869;52.238;10.716;2023-09-07T03:22:13;9.97;;;5.03;;
21416;SDS011;10869;52.238;10.716;2023-09-07T03:24:42;7.77;;;4.53;;
21416;SDS011;10869;52.238;10.716;2023-09-07T03:27:08;8.27;;;4.37;;
21416;SDS011;10869;52.238;10.716;2023-09-07T03:29:36;9.20;;;4.80;;
21416;SDS011;10869;52.238;10.716;2023-09-07T03:32:02;8.77;;;4.40;;
21416;SDS011;10869;52.238;10.716;2023-09-07T03:34:28;9.13;;;5.20;;
21416;SDS011;10869;52.238;10.716;2023-09-07T03:36:54;9.23;;;4.50;;
21416;SDS011;10869;52.238;10.716;2023-09-07T03:39:19;7.17;;;4.77;;
21416;SDS011;10869;52.238;10.716;2023-09-07T03:41:48;9.23;;;4.27;;
21416;SDS011;10869;52.238;10.716;2023-09-07T03:44:14;6.90;;;4.43;;
21416;SDS011;10869;52.238;10.716;2023-09-07T03:46:39;7.50;;;4.30;;
21416;SDS011;10869;52.238;10.716;2023-09-07T03:49:06;9.63;;;4.70;;
21416;SDS011;10869;52.238;10.716;2023-09-07T03:51:32;8.53;;;4.50;;
21416;SDS011;10869;52.238;10.716;2023-09-07T03:54:00;9.93;;;4.77;;
21416;SDS011;10869;52.238;10.716;2023-09-07T03:56:26;7.30;;;4.60;;
21416;SDS011;10869;52.238;10.716;2023-09-07T03:58:52;7.03;;;4.50;;
21416;SDS011;10869;52.238;10.716;2023-09-07T04:01:18;7.60;;;4.33;;
21416;SDS011;10869;52.238;10.716;2023-09-07T04:03:44;7.40;;;4.10;;
21416;SDS011;10869;52.238;10.716;2023-09-07T04:06:10;6.63;;;4.33;;
21416;SDS011;10869;52.238;10.716;2023-09-07T04:08:35;8.90;;;4.63;;
21416;SDS011;10869;52.238;10.716;2023-09-07T05:44:13;11.57;;;5.20;;
21416;SDS011;10869;52.238;10.716;2023-09-07T05:49:19;8.83;;;4.13;;
21416;SDS011;10869;52.238;10.716;2023-09-07T05:51:45;8.90;;;4.73;;
21416;SDS011;10869;52.238;10.716;2023-09-07T05:54:11;11.43;;;5.17;;
21416;SDS011;10869;52.238;10.716;2023-09-07T05:56:40;8.03;;;5.40;;
21416;SDS011;10869;52.238;10.716;2023-09-07T05:59:08;11.37;;;4.67;;
21416;SDS011;10869;52.238;10.716;2023-09-07T06:01:37;12.50;;;4.60;;
21416;SDS011;10869;52.238;10.716;2023-09-07T06:04:05;9.23;;;4.40;;
21416;SDS011;10869;52.238;10.716;2023-09-07T06:11:41;9.17;;;5.20;;
21416;SDS011;10869;52.238;10.716;2023-09-07T06:14:07;7.47;;;4.70;;
21416;SDS011;10869;52.238;10.716;2023-09-07T06:16:33;8.10;;;4.70;;
21416;SDS011;10869;52.238;10.716;2023-09-07T06:19:00;7.13;;;4.07;;
21416;SDS011;10869;52.238;10.716;2023-09-07T06:21:25;9.87;;;4.70;;
21416;SDS011;10869;52.238;10.716;2023-09-07T06:23:51;10.23;;;4.70;;
21416;SDS011;10869;52.238;10.716;2023-09-07T06:26:17;16.03;;;4.70;;
21416;SDS011;10869;52.238;10.716;2023-09-07T06:28:44;8.93;;;4.87;;
21416;SDS011;10869;52.238;10.716;2023-09-07T06:31:09;8.77;;;4.97;;
21416;SDS011;10869;52.238;10.716;2023-09-07T06:33:35;11.60;;;6.17;;
21416;SDS011;10869;52.238;10.716;2023-09-07T06:36:01;10.83;;;4.90;;
21416;SDS011;10869;52.238;10.716;2023-09-07T06:38:27;9.67;;;5.13;;
21416;SDS011;10869;52.238;10.716;2023-09-07T06:40:53;9.70;;;4.90;;
21416;SDS011;10869;52.238;10.716;2023-09-07T06:43:19;14.20;;;5.30;;
21416;SDS011;10869;52.238;10.716;2023-09-07T06:45:46;8.20;;;4.90;;
21416;SDS011;10869;52.238;10.716;2023-09-07T06:48:11;7.57;;;4.30;;
21416;SDS011;10869;52.238;10.716;2023-09-07T06:50:37;8.83;;;5.13;;
21416;SDS011;10869;52.238;10.716;2023-09-07T06:56:25;20.57;;;6.10;;
21416;SDS011;10869;52.238;10.716;2023-09-07T07:02:18;12.60;;;5.40;;
21416;SDS011;10869;52.238;10.716;2023-09-07T07:08:06;10.90;;;4.50;;
21416;SDS011;10869;52.238;10.716;2023-09-07T07:10:31;11.00;;;5.20;;
21416;SDS011;10869;52.238;10.716;2023-09-07T07:12:57;8.43;;;4.30;;
21416;SDS011;10869;52.238;10.716;2023-09-07T07:15:23;9.63;;;4.70;;
21416;SDS011;10869;52.238;10.716;2023-09-07T07:17:48;7.60;;;4.37;;
21416;SDS011;10869;52.238;10.716;2023-09-07T07:20:14;9.00;;;4.60;;
21416;SDS011;10869;52.238;10.716;2023-09-07T07:22:40;8.37;;;4.93;;
21416;SDS011;10869;52.238;10.716;2023-09-07T07:25:06;10.93;;;4.87;;
21416;SDS011;10869;52.238;10.716;2023-09-07T07:27:32;9.47;;;5.50;;
21416;SDS011;10869;52.238;10.716;2023-09-07T07:29:57;10.00;;;4.40;;
21416;SDS011;10869;52.238;10.716;2023-09-07T07:32:23;10.20;;;5.40;;
21416;SDS011;10869;52.238;10.716;2023-09-07T07:34:49;11.80;;;5.17;;
21416;SDS011;10869;52.238;10.716;2023-09-07T07:37:14;9.30;;;4.90;;
21416;SDS011;10869;52.238;10.716;2023-09-07T07:39:40;7.83;;;4.90;;
21416;SDS011;10869;52.238;10.716;2023-09-07T07:42:06;13.60;;;4.87;;
21416;SDS011;10869;52.238;10.716;2023-09-07T07:44:35;11.53;;;5.00;;
21416;SDS011;10869;52.238;10.716;2023-09-07T07:47:00;8.73;;;5.37;;
21416;SDS011;10869;52.238;10.716;2023-09-07T07:49:26;8.83;;;5.03;;
21416;SDS011;10869;52.238;10.716;2023-09-07T07:54:30;8.47;;;4.53;;
21416;SDS011;10869;52.238;10.716;2023-09-07T07:57:01;13.10;;;5.27;;
21416;SDS011;10869;52.238;10.716;2023-09-07T08:47:10;10.87;;;5.40;;
21416;SDS011;10869;52.238;10.716;2023-09-07T08:49:41;8.67;;;4.93;;
21416;SDS011;10869;52.238;10.716;2023-09-07T08:52:21;11.40;;;4.97;;
21416;SDS011;10869;52.238;10.716;2023-09-07T08:57:49;10.02;;;5.65;;
21416;SDS011;10869;52.238;10.716;2023-09-07T09:00:31;8.23;;;4.63;;
21416;SDS011;10869;52.238;10.716;2023-09-07T09:02:59;8.97;;;4.70;;
21416;SDS011;10869;52.238;10.716;2023-09-07T09:05:41;9.55;;;4.68;;
21416;SDS011;10869;52.238;10.716;2023-09-07T09:08:16;9.75;;;4.97;;
21416;SDS011;10869;52.238;10.716;2023-09-07T09:10:49;7.47;;;4.40;;
21416;SDS011;10869;52.238;10.716;2023-09-07T09:25:03;7.18;;;4.22;;
21416;SDS011;10869;52.238;10.716;2023-09-07T09:27:30;10.55;;;4.22;;
21416;SDS011;10869;52.238;10.716;2023-09-07T09:29:56;8.13;;;4.88;;
21416;SDS011;10869;52.238;10.716;2023-09-07T09:32:24;11.73;;;4.75;;
21416;SDS011;10869;52.238;10.716;2023-09-07T09:34:50;8.02;;;4.55;;
21416;SDS011;10869;52.238;10.716;2023-09-07T09:40:00;9.75;;;4.90;;
21416;SDS011;10869;52.238;10.716;2023-09-07T09:42:28;9.02;;;5.10;;
21416;SDS011;10869;52.238;10.716;2023-09-07T09:44:54;7.95;;;4.25;;
21416;SDS011;10869;52.238;10.716;2023-09-07T09:47:21;9.50;;;5.72;;
21416;SDS011;10869;52.238;10.716;2023-09-07T09:49:48;10.90;;;5.10;;
21416;SDS011;10869;52.238;10.716;2023-09-07T09:52:15;9.63;;;5.13;;
21416;SDS011;10869;52.238;10.716;2023-09-07T09:54:41;11.55;;;4.78;;
21416;SDS011;10869;52.238;10.716;2023-09-07T09:57:16;8.10;;;4.80;;
21416;SDS011;10869;52.238;10.716;2023-09-07T10:03:08;9.02;;;4.97;;
21416;SDS011;10869;52.238;10.716;2023-09-07T10:05:38;7.93;;;4.45;;
21416;SDS011;10869;52.238;10.716;2023-09-07T10:08:16;8.75;;;5.15;;
21416;SDS011;10869;52.238;10.716;2023-09-07T10:10:43;9.65;;;4.97;;
21416;SDS011;10869;52.238;10.716;2023-09-07T10:13:15;8.57;;;4.38;;
21416;SDS011;10869;52.238;10.716;2023-09-07T10:15:42;10.60;;;4.20;;
21416;SDS011;10869;52.238;10.716;2023-09-07T10:18:12;9.30;;;4.85;;
21416;SDS011;10869;52.238;10.716;2023-09-07T10:20:48;13.20;;;4.72;;
21416;SDS011;10869;52.238;10.716;2023-09-07T10:23:19;9.23;;;4.93;;
21416;SDS011;10869;52.238;10.716;2023-09-07T10:25:51;13.45;;;5.57;;
21416;SDS011;10869;52.238;10.716;2023-09-07T10:28:19;9.60;;;4.10;;
21416;SDS011;10869;52.238;10.716;2023-09-07T10:30:57;10.63;;;4.93;;
21416;SDS011;10869;52.238;10.716;2023-09-07T10:33:43;11.13;;;4.32;;
21416;SDS011;10869;52.238;10.716;2023-09-07T10:36:19;10.95;;;4.28;;
21416;SDS011;10869;52.238;10.716;2023-09-07T10:38:47;10.10;;;4.32;;
21416;SDS011;10869;52.238;10.716;2023-09-07T10:41:13;9.20;;;4.65;;
21416;SDS011;10869;52.238;10.716;2023-09-07T10:43:46;9.70;;;4.78;;
21416;SDS011;10869;52.238;10.716;2023-09-07T10:57:25;27.70;;;4.90;;
21416;SDS011;10869;52.238;10.716;2023-09-07T10:59:51;9.15;;;4.43;;
21416;SDS011;10869;52.238;10.716;2023-09-07T11:02:20;7.35;;;4.65;;
21416;SDS011;10869;52.238;10.716;2023-09-07T11:04:46;7.82;;;5.00;;
21416;SDS011;10869;52.238;10.716;2023-09-07T11:07:11;8.23;;;4.53;;
21416;SDS011;10869;52.238;10.716;2023-09-07T11:09:42;8.27;;;4.60;;
21416;SDS011;10869;52.238;10.716;2023-09-07T11:12:08;8.82;;;4.80;;
21416;SDS011;10869;52.238;10.716;2023-09-07T11:14:38;9.32;;;4.40;;
21416;SDS011;10869;52.238;10.716;2023-09-07T11:17:04;9.90;;;4.43;;
21416;SDS011;10869;52.238;10.716;2023-09-07T11:19:36;6.80;;;4.15;;
21416;SDS011;10869;52.238;10.716;2023-09-07T11:22:02;8.95;;;4.47;;
21416;SDS011;10869;52.238;10.716;2023-09-07T11:24:40;11.60;;;4.10;;
21416;SDS011;10869;52.238;10.716;2023-09-07T11:27:08;8.50;;;4.45;;
21416;SDS011;10869;52.238;10.716;2023-09-07T11:29:34;10.80;;;4.15;;
21416;SDS011;10869;52.238;10.716;2023-09-07T11:32:07;8.38;;;3.97;;
21416;SDS011;10869;52.238;10.716;2023-09-07T11:34:49;6.55;;;3.58;;
21416;SDS011;10869;52.238;10.716;2023-09-07T11:37:22;8.55;;;3.47;;
21416;SDS011;10869;52.238;10.716;2023-09-07T11:39:51;7.13;;;3.65;;
21416;SDS011;10869;52.238;10.716;2023-09-07T11:42:18;25.98;;;5.13;;
21416;SDS011;10869;52.238;10.716;2023-09-07T11:44:44;9.02;;;4.30;;
21416;SDS011;10869;52.238;10.716;2023-09-07T11:47:09;10.93;;;4.40;;
21416;SDS011;10869;52.238;10.716;2023-09-07T11:49:35;10.38;;;4.07;;
21416;SDS011;10869;52.238;10.716;2023-09-07T11:52:01;9.13;;;4.25;;
21416;SDS011;10869;52.238;10.716;2023-09-07T11:54:27;6.72;;;3.97;;
21416;SDS011;10869;52.238;10.716;2023-09-07T11:56:52;8.43;;;4.30;;
21416;SDS011;10869;52.238;10.716;2023-09-07T12:01:56;8.25;;;4.25;;
21416;SDS011;10869;52.238;10.716;2023-09-07T12:09:33;9.52;;;3.90;;
21416;SDS011;10869;52.238;10.716;2023-09-07T12:12:01;8.30;;;3.70;;
21416;SDS011;10869;52.238;10.716;2023-09-07T12:14:41;6.55;;;3.60;;
21416;SDS011;10869;52.238;10.716;2023-09-07T12:17:07;7.18;;;4.22;;
21416;SDS011;10869;52.238;10.716;2023-09-07T12:22:08;8.45;;;3.75;;
21416;SDS011;10869;52.238;10.716;2023-09-07T12:24:34;8.52;;;3.75;;
21416;SDS011;10869;52.238;10.716;2023-09-07T12:27:01;9.35;;;3.85;;
21416;SDS011;10869;52.238;10.716;2023-09-07T12:29:33;8.52;;;3.38;;
21416;SDS011;10869;52.238;10.716;2023-09-07T12:31:59;6.30;;;3.83;;
21416;SDS011;10869;52.238;10.716;2023-09-07T12:37:00;6.43;;;3.53;;
21416;SDS011;10869;52.238;10.716;2023-09-07T12:39:30;12.35;;;4.20;;
21416;SDS011;10869;52.238;10.716;2023-09-07T12:47:07;8.40;;;3.45;;
21416;SDS011;10869;52.238;10.716;2023-09-07T12:49:33;11.27;;;3.70;;
21416;SDS011;10869;52.238;10.716;2023-09-07T12:54:34;5.60;;;3.38;;
21416;SDS011;10869;52.238;10.716;2023-09-07T12:57:02;6.30;;;3.35;;
21416;SDS011;10869;52.238;10.716;2023-09-07T12:59:28;5.93;;;3.17;;
21416;SDS011;10869;52.238;10.716;2023-09-07T13:01:54;10.93;;;3.63;;
21416;SDS011;10869;52.238;10.716;2023-09-07T13:04:23;6.47;;;3.95;;
21416;SDS011;10869;52.238;10.716;2023-09-07T13:06:48;10.32;;;3.85;;
21416;SDS011;10869;52.238;10.716;2023-09-07T13:09:14;7.38;;;3.30;;
21416;SDS011;10869;52.238;10.716;2023-09-07T13:11:40;8.23;;;3.92;;
21416;SDS011;10869;52.238;10.716;2023-09-07T13:14:06;9.90;;;3.88;;
21416;SDS011;10869;52.238;10.716;2023-09-07T13:16:33;8.23;;;3.78;;
21416;SDS011;10869;52.238;10.716;2023-09-07T13:22:21;7.20;;;3.47;;
21416;SDS011;10869;52.238;10.716;2023-09-07T13:24:47;6.90;;;3.38;;
21416;SDS011;10869;52.238;10.716;2023-09-07T13:27:12;10.35;;;3.85;;
21416;SDS011;10869;52.238;10.716;2023-09-07T13:33:02;9.18;;;3.70;;
21416;SDS011;10869;52.238;10.716;2023-09-07T13:35:28;10.27;;;3.20;;
21416;SDS011;10869;52.238;10.716;2023-09-07T13:37:54;8.32;;;3.20;;
21416;SDS011;10869;52.238;10.716;2023-09-07T13:40:20;13.25;;;3.85;;
21416;SDS011;10869;52.238;10.716;2023-09-07T13:42:49;8.43;;;3.72;;
21416;SDS011;10869;52.238;10.716;2023-09-07T13:48:36;7.55;;;3.90;;
21416;SDS011;10869;52.238;10.716;2023-09-07T13:51:02;11.90;;;3.92;;
21416;SDS011;10869;52.238;10.716;2023-09-07T13:53:28;6.15;;;3.47;;
21416;SDS011;10869;52.238;10.716;2023-09-07T13:55:54;8.60;;;3.35;;
21416;SDS011;10869;52.238;10.716;2023-09-07T13:58:20;9.23;;;3.67;;
21416;SDS011;10869;52.238;10.716;2023-09-07T14:00:46;8.60;;;3.67;;
21416;SDS011;10869;52.238;10.716;2023-09-07T14:03:12;8.25;;;3.58;;
21416;SDS011;10869;52.238;10.716;2023-09-07T14:08:59;11.30;;;4.05;;
21416;SDS011;10869;52.238;10.716;2023-09-07T14:11:25;7.60;;;3.67;;
21416;SDS011;10869;52.238;10.716;2023-09-07T14:13:51;7.97;;;3.53;;
21416;SDS011;10869;52.238;10.716;2023-09-07T14:16:17;7.82;;;3.28;;
21416;SDS011;10869;52.238;10.716;2023-09-07T14:18:44;7.65;;;3.40;;
21416;SDS011;10869;52.238;10.716;2023-09-07T14:21:10;6.60;;;2.72;;
21416;SDS011;10869;52.238;10.716;2023-09-07T14:23:37;7.70;;;3.03;;
21416;SDS011;10869;52.238;10.716;2023-09-07T14:26:03;7.18;;;3.15;;
21416;SDS011;10869;52.238;10.716;2023-09-07T14:28:29;6.50;;;3.53;;
21416;SDS011;10869;52.238;10.716;2023-09-07T14:30:55;6.80;;;3.72;;
21416;SDS011;10869;52.238;10.716;2023-09-07T14:33:23;7.30;;;3.30;;
21416;SDS011;10869;52.238;10.716;2023-09-07T14:35:50;9.30;;;2.90;;
21416;SDS011;10869;52.238;10.716;2023-09-07T14:38:20;9.18;;;2.85;;
21416;SDS011;10869;52.238;10.716;2023-09-07T14:40:46;8.68;;;3.38;;
21416;SDS011;10869;52.238;10.716;2023-09-07T14:43:14;9.02;;;3.40;;
21416;SDS011;10869;52.238;10.716;2023-09-07T14:49:01;6.55;;;2.92;;
21416;SDS011;10869;52.238;10.716;2023-09-07T14:51:27;10.60;;;3.25;;
21416;SDS011;10869;52.238;10.716;2023-09-07T14:53:53;5.05;;;2.88;;
21416;SDS011;10869;52.238;10.716;2023-09-07T14:56:19;13.63;;;3.45;;
21416;SDS011;10869;52.238;10.716;2023-09-07T14:58:45;6.28;;;2.90;;
21416;SDS011;10869;52.238;10.716;2023-09-07T15:01:11;5.32;;;2.80;;
21416;SDS011;10869;52.238;10.716;2023-09-07T15:03:37;6.95;;;3.17;;
21416;SDS011;10869;52.238;10.716;2023-09-07T15:06:05;8.02;;;3.22;;
21416;SDS011;10869;52.238;10.716;2023-09-07T15:08:32;6.55;;;3.13;;
21416;SDS011;10869;52.238;10.716;2023-09-07T15:14:20;7.47;;;3.58;;
21416;SDS011;10869;52.238;10.716;2023-09-07T15:16:46;5.60;;;2.65;;
21416;SDS011;10869;52.238;10.716;2023-09-07T15:19:12;6.43;;;3.22;;
21416;SDS011;10869;52.238;10.716;2023-09-07T15:21:37;10.43;;;3.42;;
21416;SDS011;10869;52.238;10.716;2023-09-07T15:24:03;6.35;;;2.92;;
21416;SDS011;10869;52.238;10.716;2023-09-07T15:26:39;5.43;;;2.75;;
21416;SDS011;10869;52.238;10.716;2023-09-07T15:32:28;8.55;;;2.95;;
21416;SDS011;10869;52.238;10.716;2023-09-07T15:34:54;7.75;;;2.92;;
21416;SDS011;10869;52.238;10.716;2023-09-07T15:40:41;6.00;;;3.10;;
21416;SDS011;10869;52.238;10.716;2023-09-07T15:43:10;8.60;;;3.30;;
21416;SDS011;10869;52.238;10.716;2023-09-07T15:45:38;6.38;;;3.00;;
21416;SDS011;10869;52.238;10.716;2023-09-07T15:51:26;12.82;;;3.20;;
21416;SDS011;10869;52.238;10.716;2023-09-07T15:53:52;8.27;;;3.22;;
21416;SDS011;10869;52.238;10.716;2023-09-07T15:56:18;8.90;;;2.92;;
21416;SDS011;10869;52.238;10.716;2023-09-07T15:58:44;8.18;;;2.90;;
21416;SDS011;10869;52.238;10.716;2023-09-07T16:01:10;6.07;;;3.28;;
21416;SDS011;10869;52.238;10.716;2023-09-07T16:03:35;13.80;;;4.03;;
21416;SDS011;10869;52.238;10.716;2023-09-07T16:06:01;8.90;;;3.58;;
21416;SDS011;10869;52.238;10.716;2023-09-07T16:08:30;6.65;;;3.15;;
21416;SDS011;10869;52.238;10.716;2023-09-07T16:10:58;6.32;;;2.78;;
21416;SDS011;10869;52.238;10.716;2023-09-07T16:13:25;5.15;;;3.05;;
21416;SDS011;10869;52.238;10.716;2023-09-07T16:15:53;7.13;;;2.95;;
21416;SDS011;10869;52.238;10.716;2023-09-07T16:18:18;6.88;;;2.80;;
21416;SDS011;10869;52.238;10.716;2023-09-07T16:20:48;6.57;;;3.10;;
21416;SDS011;10869;52.238;10.716;2023-09-07T16:23:14;9.18;;;3.17;;
21416;SDS011;10869;52.238;10.716;2023-09-07T16:25:40;6.38;;;3.03;;
21416;SDS011;10869;52.238;10.716;2023-09-07T16:28:06;9.18;;;3.33;;
21416;SDS011;10869;52.238;10.716;2023-09-07T16:30:32;10.23;;;3.50;;
21416;SDS011;10869;52.238;10.716;2023-09-07T16:32:58;8.98;;;3.22;;
21416;SDS011;10869;52.238;10.716;2023-09-07T16:35:25;9.45;;;3.20;;
21416;SDS011;10869;52.238;10.716;2023-09-07T16:41:13;8.68;;;3.28;;
21416;SDS011;10869;52.238;10.716;2023-09-07T16:43:38;6.88;;;2.85;;
21416;SDS011;10869;52.238;10.716;2023-09-07T16:46:04;10.48;;;3.45;;
21416;SDS011;10869;52.238;10.716;2023-09-07T16:48:30;8.05;;;2.60;;
21416;SDS011;10869;52.238;10.716;2023-09-07T16:50:56;6.72;;;2.80;;
21416;SDS011;10869;52.238;10.716;2023-09-07T16:53:22;5.05;;;2.47;;
21416;SDS011;10869;52.238;10.716;2023-09-07T16:55:47;6.53;;;3.13;;
21416;SDS011;10869;52.238;10.716;2023-09-07T16:58:13;6.45;;;3.10;;
21416;SDS011;10869;52.238;10.716;2023-09-07T17:00:39;9.07;;;3.10;;
21416;SDS011;10869;52.238;10.716;2023-09-07T17:03:05;6.32;;;2.72;;
21416;SDS011;10869;52.238;10.716;2023-09-07T17:05:31;8.80;;;3.25;;
21416;SDS011;10869;52.238;10.716;2023-09-07T17:08:02;5.00;;;2.95;;
21416;SDS011;10869;52.238;10.716;2023-09-07T17:10:28;6.82;;;3.22;;
21416;SDS011;10869;52.238;10.716;2023-09-07T17:12:55;5.63;;;2.80;;
21416;SDS011;10869;52.238;10.716;2023-09-07T17:15:24;5.00;;;2.70;;
21416;SDS011;10869;52.238;10.716;2023-09-07T17:17:51;6.43;;;2.90;;
21416;SDS011;10869;52.238;10.716;2023-09-07T17:23:39;8.33;;;2.80;;
21416;SDS011;10869;52.238;10.716;2023-09-07T17:32:13;8.63;;;2.83;;
21416;SDS011;10869;52.238;10.716;2023-09-07T17:40:42;9.17;;;3.40;;
21416;SDS011;10869;52.238;10.716;2023-09-07T17:43:07;10.43;;;3.27;;
21416;SDS011;10869;52.238;10.716;2023-09-07T17:45:33;7.30;;;3.03;;
21416;SDS011;10869;52.238;10.716;2023-09-07T17:51:21;5.57;;;2.73;;
21416;SDS011;10869;52.238;10.716;2023-09-07T17:53:47;8.57;;;3.40;;
21416;SDS011;10869;52.238;10.716;2023-09-07T17:56:13;8.53;;;3.00;;
21416;SDS011;10869;52.238;10.716;2023-09-07T17:58:42;9.30;;;3.40;;
21416;SDS011;10869;52.238;10.716;2023-09-07T18:15:05;9.90;;;3.70;;
21416;SDS011;10869;52.238;10.716;2023-09-07T18:20:53;7.40;;;3.70;;
21416;SDS011;10869;52.238;10.716;2023-09-07T18:26:41;8.77;;;2.80;;
21416;SDS011;10869;52.238;10.716;2023-09-07T18:29:11;8.80;;;3.17;;
21416;SDS011;10869;52.238;10.716;2023-09-07T18:31:40;6.57;;;3.10;;
21416;SDS011;10869;52.238;10.716;2023-09-07T18:34:06;8.87;;;3.80;;
21416;SDS011;10869;52.238;10.716;2023-09-07T18:36:32;7.03;;;3.20;;
21416;SDS011;10869;52.238;10.716;2023-09-07T18:38:58;7.73;;;3.07;;
21416;SDS011;10869;52.238;10.716;2023-09-07T18:41:23;5.70;;;3.00;;
21416;SDS011;10869;52.238;10.716;2023-09-07T18:47:11;7.33;;;3.27;;
21416;SDS011;10869;52.238;10.716;2023-09-07T18:52:59;8.50;;;3.43;;
21416;SDS011;10869;52.238;10.716;2023-09-07T18:58:46;7.70;;;3.70;;
21416;SDS011;10869;52.238;10.716;2023-09-07T19:01:13;13.47;;;3.47;;
21416;SDS011;10869;52.238;10.716;2023-09-07T19:03:43;8.20;;;3.27;;
21416;SDS011;10869;52.238;10.716;2023-09-07T19:06:16;8.37;;;3.23;;
21416;SDS011;10869;52.238;10.716;2023-09-07T19:08:42;7.20;;;3.73;;
21416;SDS011;10869;52.238;10.716;2023-09-07T19:11:08;6.40;;;3.47;;
21416;SDS011;10869;52.238;10.716;2023-09-07T19:13:34;6.83;;;3.53;;
21416;SDS011;10869;52.238;10.716;2023-09-07T19:16:00;6.80;;;3.73;;
21416;SDS011;10869;52.238;10.716;2023-09-07T19:18:25;6.13;;;3.33;;
21416;SDS011;10869;52.238;10.716;2023-09-07T19:20:54;7.00;;;3.77;;
21416;SDS011;10869;52.238;10.716;2023-09-07T19:23:20;9.53;;;3.70;;
21416;SDS011;10869;52.238;10.716;2023-09-07T19:25:50;7.40;;;3.63;;
21416;SDS011;10869;52.238;10.716;2023-09-07T19:28:16;12.20;;;3.80;;
21416;SDS011;10869;52.238;10.716;2023-09-07T19:34:05;8.97;;;3.47;;
21416;SDS011;10869;52.238;10.716;2023-09-07T19:36:31;7.53;;;4.07;;
21416;SDS011;10869;52.238;10.716;2023-09-07T19:38:58;6.70;;;3.60;;
21416;SDS011;10869;52.238;10.716;2023-09-07T19:41:26;9.10;;;4.10;;
21416;SDS011;10869;52.238;10.716;2023-09-07T19:43:55;9.97;;;4.33;;
21416;SDS011;10869;52.238;10.716;2023-09-07T19:46:22;9.10;;;4.10;;
21416;SDS011;10869;52.238;10.716;2023-09-07T19:48:48;8.60;;;4.17;;
21416;SDS011;10869;52.238;10.716;2023-09-07T19:51:14;9.00;;;4.00;;
21416;SDS011;10869;52.238;10.716;2023-09-07T19:57:03;8.37;;;4.50;;
21416;SDS011;10869;52.238;10.716;2023-09-07T20:02:50;7.47;;;4.33;;
21416;SDS011;10869;52.238;10.716;2023-09-07T20:08:39;15.60;;;4.50;;
21416;SDS011;10869;52.238;10.716;2023-09-07T20:14:27;7.37;;;4.17;;
21416;SDS011;10869;52.238;10.716;2023-09-07T20:16:52;11.13;;;4.17;;
21416;SDS011;10869;52.238;10.716;2023-09-07T20:19:18;7.53;;;4.10;;
21416;SDS011;10869;52.238;10.716;2023-09-07T20:21:44;11.47;;;4.57;;
21416;SDS011;10869;52.238;10.716;2023-09-07T20:27:32;9.67;;;4.10;;
21416;SDS011;10869;52.238;10.716;2023-09-07T20:29:58;8.20;;;4.13;;
21416;SDS011;10869;52.238;10.716;2023-09-07T20:32:24;10.03;;;4.37;;
21416;SDS011;10869;52.238;10.716;2023-09-07T20:34:50;7.03;;;4.20;;
21416;SDS011;10869;52.238;10.716;2023-09-07T20:37:18;7.40;;;3.83;;
21416;SDS011;10869;52.238;10.716;2023-09-07T20:39:44;7.17;;;3.90;;
21416;SDS011;10869;52.238;10.716;2023-09-07T20:42:09;8.67;;;4.13;;
21416;SDS011;10869;52.238;10.716;2023-09-07T20:44:36;9.33;;;4.17;;
21416;SDS011;10869;52.238;10.716;2023-09-07T20:50:23;8.33;;;4.40;;
21416;SDS011;10869;52.238;10.716;2023-09-07T20:56:11;13.07;;;4.17;;
21416;SDS011;10869;52.238;10.716;2023-09-07T20:58:37;9.07;;;4.23;;
21416;SDS011;10869;52.238;10.716;2023-09-07T21:01:04;7.83;;;4.27;;
21416;SDS011;10869;52.238;10.716;2023-09-07T21:03:31;9.77;;;4.23;;
21416;SDS011;10869;52.238;10.716;2023-09-07T21:05:57;7.37;;;4.33;;
21416;SDS011;10869;52.238;10.716;2023-09-07T21:08:23;7.63;;;4.20;;
21416;SDS011;10869;52.238;10.716;2023-09-07T21:13:29;9.00;;;4.13;;
21416;SDS011;10869;52.238;10.716;2023-09-07T21:15:55;8.17;;;4.40;;
21416;SDS011;10869;52.238;10.716;2023-09-07T21:18:21;7.60;;;4.40;;
21416;SDS011;10869;52.238;10.716;2023-09-07T21:20:47;10.33;;;4.57;;
21416;SDS011;10869;52.238;10.716;2023-09-07T21:23:13;9.10;;;4.20;;
21416;SDS011;10869;52.238;10.716;2023-09-07T21:25:39;8.30;;;4.50;;
21416;SDS011;10869;52.238;10.716;2023-09-07T21:31:28;9.93;;;4.20;;
21416;SDS011;10869;52.238;10.716;2023-09-07T21:33:54;7.57;;;4.27;;
21416;SDS011;10869;52.238;10.716;2023-09-07T21:39:46;16.40;;;4.47;;
21416;SDS011;10869;52.238;10.716;2023-09-07T21:42:14;10.13;;;4.00;;
21416;SDS011;10869;52.238;10.716;2023-09-07T21:44:40;11.30;;;4.30;;
21416;SDS011;10869;52.238;10.716;2023-09-07T21:47:06;7.97;;;4.03;;
21416;SDS011;10869;52.238;10.716;2023-09-07T21:49:33;9.30;;;4.00;;
21416;SDS011;10869;52.238;10.716;2023-09-07T21:51:59;7.80;;;4.27;;
21416;SDS011;10869;52.238;10.716;2023-09-07T21:54:25;7.50;;;4.20;;
21416;SDS011;10869;52.238;10.716;2023-09-07T21:56:51;11.53;;;4.03;;
21416;SDS011;10869;52.238;10.716;2023-09-07T21:59:17;10.63;;;4.10;;
21416;SDS011;10869;52.238;10.716;2023-09-07T22:01:43;7.00;;;3.60;;
21416;SDS011;10869;52.238;10.716;2023-09-07T22:04:09;9.20;;;4.00;;
21416;SDS011;10869;52.238;10.716;2023-09-07T22:06:36;10.57;;;4.10;;
21416;SDS011;10869;52.238;10.716;2023-09-07T22:09:04;15.17;;;4.67;;
21416;SDS011;10869;52.238;10.716;2023-09-07T22:11:30;7.20;;;3.80;;
21416;SDS011;10869;52.238;10.716;2023-09-07T22:13:57;8.03;;;4.03;;
21416;SDS011;10869;52.238;10.716;2023-09-07T22:16:24;7.80;;;3.90;;
21416;SDS011;10869;52.238;10.716;2023-09-07T22:18:49;9.83;;;4.47;;
21416;SDS011;10869;52.238;10.716;2023-09-07T22:21:15;10.00;;;4.20;;
21416;SDS011;10869;52.238;10.716;2023-09-07T22:23:46;6.97;;;3.80;;
21416;SDS011;10869;52.238;10.716;2023-09-07T22:26:12;8.87;;;4.37;;
21416;SDS011;10869;52.238;10.716;2023-09-07T22:28:38;9.63;;;4.70;;
21416;SDS011;10869;52.238;10.716;2023-09-07T22:31:04;10.33;;;4.50;;
21416;SDS011;10869;52.238;10.716;2023-09-07T22:33:31;9.93;;;4.13;;
21416;SDS011;10869;52.238;10.716;2023-09-07T22:35:57;9.77;;;4.30;;
21416;SDS011;10869;52.238;10.716;2023-09-07T22:38:22;8.87;;;4.53;;
21416;SDS011;10869;52.238;10.716;2023-09-07T22:40:53;10.93;;;4.23;;
21416;SDS011;10869;52.238;10.716;2023-09-07T22:43:21;8.60;;;4.60;;
21416;SDS011;10869;52.238;10.716;2023-09-07T22:45:47;8.03;;;4.37;;
21416;SDS011;10869;52.238;10.716;2023-09-07T22:48:13;9.10;;;4.63;;
21416;SDS011;10869;52.238;10.716;2023-09-07T22:50:38;10.20;;;5.27;;
21416;SDS011;10869;52.238;10.716;2023-09-07T22:53:04;11.20;;;4.23;;
21416;SDS011;10869;52.238;10.716;2023-09-07T22:55:41;8.87;;;4.50;;
21416;SDS011;10869;52.238;10.716;2023-09-07T22:58:10;8.77;;;4.93;;
